Time;durP1;ratioP1;P1;durP2;ratioP2;P2;SDS_P1;SDS_P2;PMS_P1;PMS_P2;Temp;Humidity;BMP_temperature;BMP_pressure;BME280_temperature;BME280_humidity;BME280_pressure;Samples;Min_cycle;Max_cycle;Signal;HPM_P1;HPM_P2
2021/09/16 00:00:24;;;;;;;6.33;4.60;;;;;;;19.51;100.00;100504.22;5060523;28;20445;-70
2021/09/16 00:02:51;;;;;;;11.53;6.80;;;;;;;19.52;100.00;100511.28;5073254;28;20966;-70
2021/09/16 00:05:17;;;;;;;9.33;6.40;;;;;;;19.52;100.00;100501.13;5073231;28;20942;-70
2021/09/16 00:07:44;;;;;;;8.43;5.00;;;;;;;19.50;100.00;100510.88;5073486;28;20484;-71
2021/09/16 00:10:12;;;;;;;7.43;5.20;;;;;;;19.52;100.00;100508.53;5068046;28;20439;-70
2021/09/16 00:12:39;;;;;;;10.73;6.20;;;;;;;19.50;100.00;100506.16;5053343;28;20446;-71
2021/09/16 00:15:09;;;;;;;12.20;6.80;;;;;;;19.50;100.00;100510.88;5052659;28;20453;-71
2021/09/16 00:17:35;;;;;;;8.37;4.77;;;;;;;19.51;100.00;100515.19;5053244;28;20843;-70
2021/09/16 00:20:04;;;;;;;11.93;5.87;;;;;;;19.50;100.00;100514.41;5056804;28;20480;-70
2021/09/16 00:22:31;;;;;;;8.27;4.87;;;;;;;19.47;100.00;100511.59;5073181;28;20834;-70
2021/09/16 00:24:57;;;;;;;13.90;6.20;;;;;;;19.46;100.00;100510.81;5073270;28;20473;-69
2021/09/16 00:27:24;;;;;;;12.40;6.47;;;;;;;19.45;100.00;100516.66;5073041;28;20438;-71
2021/09/16 00:29:50;;;;;;;11.87;5.37;;;;;;;19.38;100.00;100523.59;5070872;28;20491;-71
2021/09/16 00:32:18;;;;;;;15.73;6.93;;;;;;;19.38;100.00;100520.84;5052861;28;20828;-70
2021/09/16 00:34:44;;;;;;;8.63;5.17;;;;;;;19.37;100.00;100519.25;5053153;28;20469;-71
2021/09/16 00:37:11;;;;;;;10.03;5.53;;;;;;;19.35;100.00;100513.34;5052995;28;20490;-71
2021/09/16 00:39:37;;;;;;;11.60;6.70;;;;;;;19.37;100.00;100519.25;5053067;28;20442;-72
2021/09/16 00:42:04;;;;;;;12.70;6.23;;;;;;;19.38;100.00;100525.53;5072488;28;20495;-70
2021/09/16 00:44:30;;;;;;;9.03;6.30;;;;;;;19.38;100.00;100526.34;5073041;28;20457;-71
2021/09/16 00:46:57;;;;;;;9.80;6.20;;;;;;;19.38;100.00;100526.34;5055149;28;20797;-70
2021/09/16 00:49:25;;;;;;;12.00;6.37;;;;;;;19.39;100.00;100530.69;5053108;28;20449;-70
2021/09/16 00:51:52;;;;;;;9.90;6.37;;;;;;;19.38;100.00;100531.03;5070672;28;20446;-70
2021/09/16 00:54:21;;;;;;;11.40;6.23;;;;;;;19.37;100.00;100538.50;5072948;28;20472;-70
2021/09/16 00:56:49;;;;;;;12.87;6.90;;;;;;;19.37;100.00;100535.75;5072949;28;20488;-70
2021/09/16 00:59:19;;;;;;;18.03;6.60;;;;;;;19.30;100.00;100529.31;5073333;28;20441;-70
2021/09/16 01:01:46;;;;;;;13.63;7.60;;;;;;;19.26;100.00;100540.25;5055764;28;20454;-71
2021/09/16 01:04:12;;;;;;;9.40;6.53;;;;;;;19.26;100.00;100536.69;5052829;28;20537;-70
2021/09/16 01:06:40;;;;;;;9.67;5.90;;;;;;;19.28;100.00;100540.66;5052880;28;20453;-71
2021/09/16 01:09:07;;;;;;;18.97;6.40;;;;;;;19.28;100.00;100543.41;5052858;28;20442;-70
2021/09/16 01:11:33;;;;;;;8.70;5.83;;;;;;;19.30;100.00;100541.09;5067631;28;20445;-70
2021/09/16 01:14:00;;;;;;;14.77;6.93;;;;;;;19.31;100.00;100550.16;5083035;22;20501;-75
2021/09/16 01:16:26;;;;;;;10.90;6.60;;;;;;;19.31;100.00;100547.41;5052677;28;20493;-75
2021/09/16 01:18:53;;;;;;;15.33;7.57;;;;;;;19.32;100.00;100552.53;5052661;28;20451;-75
2021/09/16 01:21:21;;;;;;;14.47;8.50;;;;;;;19.26;100.00;100555.94;5051730;28;20970;-75
2021/09/16 01:23:49;;;;;;;8.60;6.00;;;;;;;19.25;100.00;100555.09;5043871;28;20970;-74
2021/09/16 01:26:15;;;;;;;12.33;7.33;;;;;;;19.23;100.00;100554.69;5035252;28;20443;-75
2021/09/16 01:28:42;;;;;;;12.90;7.70;;;;;;;19.21;100.00;100558.94;5036394;28;20454;-75
2021/09/16 01:31:08;;;;;;;12.57;7.40;;;;;;;19.21;100.00;100558.94;5035891;28;20455;-75
2021/09/16 01:33:35;;;;;;;14.30;7.53;;;;;;;19.14;100.00;100563.13;5035998;28;20999;-75
2021/09/16 01:36:02;;;;;;;11.27;7.23;;;;;;;19.07;100.00;100564.91;5036105;28;20454;-75
2021/09/16 01:38:28;;;;;;;14.37;7.83;;;;;;;19.07;100.00;100570.41;5035672;28;20991;-75
2021/09/16 01:40:56;;;;;;;14.60;6.87;;;;;;;19.04;100.00;100560.97;5035813;28;20960;-74
2021/09/16 01:43:22;;;;;;;13.07;7.10;;;;;;;19.02;100.00;100557.75;5036078;28;20465;-74
2021/09/16 01:45:49;;;;;;;12.93;6.33;;;;;;;18.98;100.00;100565.13;5036058;28;20450;-74
2021/09/16 01:48:15;;;;;;;10.20;7.10;;;;;;;18.94;100.00;100560.69;5036478;28;20439;-74
2021/09/16 01:50:42;;;;;;;12.27;7.03;;;;;;;18.94;100.00;100560.69;5036759;28;20443;-74
2021/09/16 01:53:08;;;;;;;16.90;7.10;;;;;;;18.88;100.00;100571.97;5036478;28;20454;-74
2021/09/16 01:55:34;;;;;;;14.30;7.80;;;;;;;18.88;100.00;100571.16;5035897;28;20443;-74
2021/09/16 01:58:02;;;;;;;17.60;7.07;;;;;;;18.83;100.00;100582.44;5035709;28;20482;-75
2021/09/16 02:00:29;;;;;;;13.17;5.77;;;;;;;18.83;100.00;100580.47;5036180;28;20944;-74
2021/09/16 02:02:55;;;;;;;14.90;7.90;;;;;;;18.80;100.00;100583.13;5036310;28;20435;-74
2021/09/16 02:05:22;;;;;;;17.30;7.90;;;;;;;18.77;100.00;100578.34;5035887;28;20471;-74
2021/09/16 02:07:48;;;;;;;14.30;7.00;;;;;;;18.75;100.00;100589.69;5035364;28;20788;-74
2021/09/16 02:10:15;;;;;;;12.73;7.77;;;;;;;18.71;100.00;100588.81;5035437;28;20447;-74
2021/09/16 02:12:41;;;;;;;15.93;7.20;;;;;;;18.70;100.00;100579.00;5035624;28;20439;-74
2021/09/16 02:15:10;;;;;;;16.27;7.50;;;;;;;18.68;100.00;100575.75;5035166;28;20478;-74
2021/09/16 02:17:36;;;;;;;13.40;6.90;;;;;;;18.72;100.00;100567.66;5035446;28;20491;-75
2021/09/16 02:20:03;;;;;;;11.07;6.13;;;;;;;18.66;100.00;100576.13;5035310;28;20439;-74
2021/09/16 02:22:29;;;;;;;11.50;6.40;;;;;;;18.65;100.00;100577.28;5035034;28;20862;-74
2021/09/16 02:24:56;;;;;;;12.83;6.53;;;;;;;18.61;100.00;100572.88;5034776;28;20978;-74
2021/09/16 02:27:22;;;;;;;12.00;5.73;;;;;;;18.58;100.00;100579.06;5035327;28;20447;-74
2021/09/16 02:29:49;;;;;;;15.80;7.63;;;;;;;18.55;100.00;100579.75;5034741;28;20940;-74
2021/09/16 02:32:17;;;;;;;19.17;8.73;;;;;;;18.56;100.00;100573.13;5035278;28;20447;-74
2021/09/16 02:34:43;;;;;;;10.90;6.33;;;;;;;18.59;100.00;100581.47;5035116;28;20460;-74
2021/09/16 02:37:09;;;;;;;15.33;7.97;;;;;;;18.58;100.00;100587.28;5034372;28;20485;-74
2021/09/16 02:39:36;;;;;;;13.63;6.67;;;;;;;18.58;100.00;100579.84;5034785;28;20859;-74
2021/09/16 02:42:03;;;;;;;12.73;7.77;;;;;;;18.62;100.00;100585.44;5035039;28;20446;-74
2021/09/16 02:44:29;;;;;;;13.20;7.80;;;;;;;18.62;100.00;100586.22;5034936;28;20471;-75
2021/09/16 02:46:56;;;;;;;18.17;7.10;;;;;;;18.63;100.00;100584.25;5034910;28;20441;-74
2021/09/16 02:49:23;;;;;;;12.13;6.10;;;;;;;18.62;100.00;100588.16;5034675;28;20442;-74
2021/09/16 02:51:50;;;;;;;16.00;7.40;;;;;;;18.61;100.00;100592.88;5034823;28;20451;-75
2021/09/16 02:54:17;;;;;;;9.03;6.27;;;;;;;18.63;100.00;100589.75;5034415;28;20840;-75
2021/09/16 02:56:44;;;;;;;14.10;7.93;;;;;;;18.64;100.00;100594.13;5034711;28;20447;-75
2021/09/16 02:59:10;;;;;;;14.07;7.20;;;;;;;18.64;100.00;100597.66;5034715;28;20443;-75
2021/09/16 03:01:36;;;;;;;18.13;7.57;;;;;;;18.66;100.00;100589.06;5034355;28;20435;-74
2021/09/16 03:04:03;;;;;;;14.17;7.63;;;;;;;18.68;100.00;100603.19;5034556;28;20466;-74
2021/09/16 03:06:31;;;;;;;12.17;6.30;;;;;;;18.66;100.00;100597.28;5034551;28;20514;-75
2021/09/16 03:08:57;;;;;;;22.33;9.13;;;;;;;18.65;100.00;100595.69;5034458;28;20435;-75
2021/09/16 03:11:24;;;;;;;12.27;7.03;;;;;;;18.66;100.00;100597.28;5034232;28;20454;-75
2021/09/16 03:13:50;;;;;;;11.60;6.47;;;;;;;18.63;100.00;100597.97;5034126;28;20537;-75
2021/09/16 03:16:17;;;;;;;13.77;6.60;;;;;;;18.64;100.00;100596.84;5034212;28;20461;-75
2021/09/16 03:18:43;;;;;;;17.60;7.33;;;;;;;18.63;100.00;100597.97;5034185;28;20487;-75
2021/09/16 03:21:10;;;;;;;15.20;7.80;;;;;;;18.63;100.00;100601.53;5034026;28;20427;-75
2021/09/16 03:23:38;;;;;;;17.50;9.00;;;;;;;18.63;100.00;100597.97;5034181;28;20455;-75
2021/09/16 03:26:04;;;;;;;21.80;6.90;;;;;;;18.63;100.00;100595.25;5033882;28;20470;-75
2021/09/16 03:28:31;;;;;;;20.93;10.63;;;;;;;18.60;100.00;100604.22;5034067;28;20446;-75
2021/09/16 03:30:57;;;;;;;12.70;7.53;;;;;;;18.60;100.00;100601.47;5034113;28;20435;-75
2021/09/16 03:33:23;;;;;;;15.20;7.87;;;;;;;18.59;100.00;100608.91;5033996;28;20446;-74
2021/09/16 03:35:50;;;;;;;14.70;7.50;;;;;;;18.60;100.00;100613.22;5033815;28;20452;-74
2021/09/16 03:38:16;;;;;;;17.33;8.17;;;;;;;18.60;100.00;100613.22;5033689;28;20487;-74
2021/09/16 03:40:44;;;;;;;19.03;7.63;;;;;;;18.56;100.00;100612.34;5034166;28;20447;-75
2021/09/16 03:43:11;;;;;;;17.50;7.63;;;;;;;18.54;100.00;100608.34;5034045;28;20447;-73
2021/09/16 03:45:37;;;;;;;25.13;10.20;;;;;;;18.53;100.00;100609.50;5038027;28;20454;-74
2021/09/16 03:48:04;;;;;;;21.37;10.57;;;;;;;18.50;100.00;100613.75;5053697;28;20475;-74
2021/09/16 03:50:31;;;;;;;22.13;9.63;;;;;;;18.46;100.00;100625.78;5053632;28;20446;-74
2021/09/16 03:52:57;;;;;;;28.10;12.43;;;;;;;18.41;100.00;100607.63;5053691;28;20450;-74
2021/09/16 03:55:24;;;;;;;18.00;8.80;;;;;;;18.40;100.00;100617.81;5049374;28;20471;-74
2021/09/16 03:57:51;;;;;;;21.47;9.67;;;;;;;18.31;100.00;100616.41;5050589;28;20573;-75
2021/09/16 04:00:18;;;;;;;21.47;10.23;;;;;;;18.30;100.00;100615.59;5034678;28;20458;-74
2021/09/16 04:02:44;;;;;;;20.20;10.60;;;;;;;18.28;100.00;100625.31;5033461;28;20451;-73
2021/09/16 04:05:11;;;;;;;28.70;12.10;;;;;;;18.21;100.00;100617.72;5033269;28;20467;-76
2021/09/16 04:07:37;;;;;;;19.33;10.07;;;;;;;18.22;100.00;100627.53;5033510;28;20447;-76
2021/09/16 04:10:05;;;;;;;22.77;11.37;;;;;;;18.17;100.00;100616.81;5033489;28;20447;-76
2021/09/16 04:12:32;;;;;;;19.27;10.60;;;;;;;18.20;100.00;100621.59;5033652;28;20443;-76
2021/09/16 04:15:00;;;;;;;28.90;11.23;;;;;;;18.12;100.00;100620.63;5032937;28;20487;-76
2021/09/16 04:17:26;;;;;;;34.67;12.63;;;;;;;18.13;100.00;100621.41;5033312;28;20487;-76
2021/09/16 04:19:53;;;;;;;21.73;9.93;;;;;;;18.13;100.00;100622.22;5032990;28;20435;-76
2021/09/16 04:22:19;;;;;;;20.63;10.10;;;;;;;18.15;100.00;100627.34;5032932;28;20451;-76
2021/09/16 04:24:46;;;;;;;19.00;9.07;;;;;;;18.08;100.00;100624.41;5032773;28;21045;-76
2021/09/16 04:27:13;;;;;;;23.87;9.90;;;;;;;18.11;100.00;100631.94;5033285;28;20450;-76
2021/09/16 04:29:39;;;;;;;22.33;11.87;;;;;;;18.07;100.00;100633.78;5033200;28;20450;-76
2021/09/16 04:32:08;;;;;;;20.90;11.90;;;;;;;18.01;100.00;100629.69;5032927;28;20447;-76
2021/09/16 04:34:35;;;;;;;24.90;10.50;;;;;;;17.96;100.00;100633.47;5032774;28;20865;-76
2021/09/16 04:37:01;;;;;;;19.20;9.00;;;;;;;17.97;100.00;100642.50;5033005;28;20458;-76
2021/09/16 04:39:28;;;;;;;21.90;10.73;;;;;;;18.01;100.00;100646.13;5033059;28;20451;-76
2021/09/16 04:41:54;;;;;;;18.20;9.30;;;;;;;18.00;100.00;100650.81;5032441;28;20945;-76
2021/09/16 04:44:21;;;;;;;26.77;11.33;;;;;;;18.01;100.00;100641.44;5032879;28;20469;-76
2021/09/16 04:46:47;;;;;;;19.23;9.77;;;;;;;18.00;100.00;100647.28;5032826;28;20440;-76
2021/09/16 04:49:15;;;;;;;17.27;9.40;;;;;;;18.03;100.00;100643.84;5032641;28;20845;-75
2021/09/16 04:51:41;;;;;;;21.80;10.00;;;;;;;17.96;100.00;100641.69;5032545;28;20454;-76
2021/09/16 04:54:08;;;;;;;21.03;11.43;;;;;;;17.99;100.00;100640.22;5032754;28;20459;-76
2021/09/16 04:56:34;;;;;;;18.73;8.90;;;;;;;17.96;100.00;100646.41;5032490;28;20454;-75
2021/09/16 04:59:01;;;;;;;15.13;8.30;;;;;;;17.93;100.00;100649.81;5032662;28;20478;-74
2021/09/16 05:01:27;;;;;;;12.40;9.17;;;;;;;17.94;100.00;100659.66;5034212;28;20443;-75
2021/09/16 05:03:53;;;;;;;17.57;8.17;;;;;;;17.89;100.00;100657.97;5035874;28;20849;-74
2021/09/16 05:06:21;;;;;;;14.50;8.90;;;;;;;17.89;100.00;100663.44;5037593;28;20443;-75
2021/09/16 05:08:48;;;;;;;23.10;8.50;;;;;;;17.86;100.00;100670.41;5038652;28;21010;-75
2021/09/16 05:11:14;;;;;;;15.30;7.23;;;;;;;17.78;100.00;100670.56;5027269;28;20469;-73
2021/09/16 05:13:41;;;;;;;17.43;7.17;;;;;;;17.76;100.00;100676.38;5016591;28;20467;-75
2021/09/16 05:16:07;;;;;;;14.87;7.27;;;;;;;17.77;100.00;100683.47;5032556;28;20440;-75
2021/09/16 05:18:33;;;;;;;19.93;7.27;;;;;;;17.74;100.00;100673.19;5037961;28;20498;-77
2021/09/16 05:21:00;;;;;;;12.70;6.50;;;;;;;17.77;100.00;100674.44;5036551;28;20952;-75
2021/09/16 05:23:28;;;;;;;13.97;7.10;;;;;;;17.78;100.00;100682.31;5036016;28;20951;-74
2021/09/16 05:25:54;;;;;;;14.80;6.33;;;;;;;17.70;100.00;100676.94;5036311;28;20450;-75
2021/09/16 05:28:21;;;;;;;17.80;8.60;;;;;;;17.69;100.00;100681.63;5036366;28;20435;-75
2021/09/16 05:30:47;;;;;;;10.93;6.30;;;;;;;17.63;100.00;100685.75;5036274;28;20443;-72
2021/09/16 05:33:13;;;;;;;11.97;6.87;;;;;;;17.56;100.00;100689.06;5036270;28;20451;-70
2021/09/16 05:35:40;;;;;;;12.03;5.90;;;;;;;17.55;100.00;100689.41;5036220;28;20453;-72
2021/09/16 05:38:08;;;;;;;8.90;5.83;;;;;;;17.51;100.00;100683.03;5036108;28;20475;-70
2021/09/16 05:40:35;;;;;;;11.20;7.17;;;;;;;17.52;100.00;100690.91;5038570;28;20466;-71
2021/09/16 05:43:02;;;;;;;9.10;5.70;;;;;;;17.56;100.00;100693.75;5056380;28;20449;-70
2021/09/16 05:45:29;;;;;;;11.70;5.57;;;;;;;17.61;100.00;100688.81;5047893;28;20517;-69
2021/09/16 05:47:55;;;;;;;33.37;6.10;;;;;;;17.62;100.00;100697.88;5035751;28;20442;-71
2021/09/16 05:50:22;;;;;;;7.80;5.43;;;;;;;17.68;100.00;100699.22;5035844;28;20462;-72
2021/09/16 05:52:48;;;;;;;12.97;6.17;;;;;;;17.65;100.00;100702.63;5036166;28;20447;-72
2021/09/16 05:55:15;;;;;;;9.73;6.00;;;;;;;17.66;100.00;100698.75;5035760;28;20466;-73
2021/09/16 05:57:43;;;;;;;10.50;6.03;;;;;;;17.69;100.00;100706.28;5034297;28;20470;-73
2021/09/16 06:00:10;;;;;;;12.30;6.47;;;;;;;17.73;100.00;100704.44;5035773;28;20470;-73
2021/09/16 06:02:37;;;;;;;10.60;6.07;;;;;;;17.74;100.00;100714.28;5035839;28;20872;-73
2021/09/16 06:05:04;;;;;;;9.73;6.13;;;;;;;17.77;100.00;100719.09;5035624;28;20463;-73
2021/09/16 06:07:30;;;;;;;8.77;5.80;;;;;;;17.68;100.00;100715.66;5035728;28;20451;-72
2021/09/16 06:09:57;;;;;;;12.77;5.70;;;;;;;17.68;100.00;100715.66;5035684;28;20452;-73
2021/09/16 06:12:26;;;;;;;11.40;6.77;;;;;;;17.75;100.00;100715.06;5034524;28;20454;-73
2021/09/16 06:14:54;;;;;;;10.83;5.90;;;;;;;17.73;100.00;100728.31;5036796;28;20487;-73
2021/09/16 06:17:21;;;;;;;7.30;5.40;;;;;;;17.67;100.00;100729.69;5036916;28;20439;-73
2021/09/16 06:19:48;;;;;;;7.97;5.27;;;;;;;17.66;100.00;100734.34;5035390;28;20518;-73
2021/09/16 06:22:24;;;;;;;10.77;6.10;;;;;;;17.66;100.00;100723.41;5035414;28;20448;-73
2021/09/16 06:24:50;;;;;;;11.20;6.90;;;;;;;17.56;100.00;100723.88;5035525;28;20522;-73
2021/09/16 06:27:17;;;;;;;10.13;6.17;;;;;;;17.60;100.00;100730.28;5035244;28;20450;-73
2021/09/16 06:29:43;;;;;;;12.37;6.60;;;;;;;17.64;100.00;100731.97;5034755;28;20932;-73
2021/09/16 06:32:11;;;;;;;11.80;5.80;;;;;;;17.65;100.00;100730.81;5035197;28;20453;-73
2021/09/16 06:34:38;;;;;;;10.20;6.20;;;;;;;17.69;100.00;100733.69;5034975;28;20876;-73
2021/09/16 06:37:05;;;;;;;7.73;5.10;;;;;;;17.74;100.00;100735.41;5035097;28;20444;-73
2021/09/16 06:39:31;;;;;;;6.90;4.93;;;;;;;17.74;100.00;100738.94;5034706;28;20479;-73
2021/09/16 06:41:58;;;;;;;9.57;5.80;;;;;;;17.68;100.00;100743.03;5035061;28;20444;-71
2021/09/16 06:44:24;;;;;;;8.20;5.30;;;;;;;17.72;100.00;100740.41;5034962;28;20470;-73
2021/09/16 06:46:51;;;;;;;7.63;4.50;;;;;;;17.69;100.00;100743.84;5035205;28;20435;-73
2021/09/16 06:49:18;;;;;;;6.87;4.10;;;;;;;17.68;100.00;100748.53;5034902;28;20473;-73
2021/09/16 06:51:45;;;;;;;9.33;5.90;;;;;;;17.72;100.00;100752.19;5034796;28;20447;-71
2021/09/16 06:54:11;;;;;;;9.50;6.37;;;;;;;17.72;100.00;100749.44;5034700;28;20837;-71
2021/09/16 06:56:38;;;;;;;13.60;5.87;;;;;;;17.71;100.00;100750.59;5035019;28;20447;-71
2021/09/16 06:59:04;;;;;;;10.43;5.83;;;;;;;17.76;100.00;100753.13;5034473;28;20485;-71
2021/09/16 07:01:33;;;;;;;7.83;4.93;;;;;;;17.82;100.00;100753.66;5034877;28;20443;-71
2021/09/16 07:03:59;;;;;;;6.43;4.10;;;;;;;17.88;100.00;100761.31;5034247;28;20495;-72
2021/09/16 07:06:27;;;;;;;6.97;4.80;;;;;;;17.93;100.00;100764.94;5034245;28;21049;-72
2021/09/16 07:08:53;;;;;;;10.37;4.80;;;;;;;17.89;100.00;100765.66;5034417;28;20438;-72
2021/09/16 07:11:20;;;;;;;7.17;4.33;;;;;;;17.81;100.00;100774.00;5034374;28;20443;-72
2021/09/16 07:16:16;;;;;;;8.43;4.60;;;;;;;17.87;100.00;100770.66;5013006;28;20499;-74
2021/09/16 07:18:42;;;;;;;10.27;3.90;;;;;;;17.94;100.00;100763.81;5014827;28;20488;-75
2021/09/16 07:21:09;;;;;;;9.50;3.90;;;;;;;18.03;100.00;100767.22;5014531;28;20447;-74
2021/09/16 07:23:36;;;;;;;8.03;4.17;;;;;;;18.04;100.00;100772.34;5014311;28;20452;-74
2021/09/16 07:26:03;;;;;;;5.33;2.97;;;;;;;18.08;100.00;100772.44;5014398;28;20515;-73
2021/09/16 07:28:34;;;;;;;7.07;3.87;;;;;;;18.08;100.00;100772.44;5014475;28;20460;-73
2021/09/16 07:31:00;;;;;;;6.27;4.20;;;;;;;18.13;100.00;100774.94;5014448;28;20428;-75
2021/09/16 07:33:27;;;;;;;10.97;3.60;;;;;;;18.17;100.00;100775.84;5014314;28;20443;-75
2021/09/16 07:35:53;;;;;;;4.00;2.60;;;;;;;18.28;100.00;100776.16;5014208;28;20471;-75
2021/09/16 07:38:20;;;;;;;7.57;4.03;;;;;;;18.24;100.00;100776.06;5013982;28;20847;-74
2021/09/16 07:40:47;;;;;;;4.60;3.10;;;;;;;18.25;100.00;100771.38;5013845;28;20506;-75
2021/09/16 07:43:14;;;;;;;6.20;3.30;;;;;;;18.34;100.00;100774.78;5013800;28;20440;-74
2021/09/16 07:45:40;;;;;;;2.57;2.37;;;;;;;18.38;100.00;100786.63;5014148;28;20464;-74
2021/09/16 07:48:07;;;;;;;3.17;2.50;;;;;;;18.39;100.00;100789.03;5014220;28;20444;-73
2021/09/16 07:50:33;;;;;;;3.60;2.40;;;;;;;18.14;100.00;100782.00;5014132;28;20452;-74
2021/09/16 07:53:00;;;;;;;2.90;2.60;;;;;;;18.26;100.00;100784.72;5014032;28;20448;-74
2021/09/16 07:55:27;;;;;;;3.17;2.03;;;;;;;18.35;100.00;100785.38;5014007;28;20468;-73
2021/09/16 07:57:55;;;;;;;7.40;2.43;;;;;;;18.42;100.00;100793.03;5013945;28;20451;-74
2021/09/16 08:00:22;;;;;;;4.83;2.67;;;;;;;18.48;100.00;100788.09;5013912;28;20484;-73
2021/09/16 08:02:50;;;;;;;4.00;1.70;;;;;;;18.52;100.00;100791.72;5013677;28;20960;-72
2021/09/16 08:05:19;;;;;;;5.90;2.20;;;;;;;18.53;100.00;100787.81;5013784;28;20494;-74
2021/09/16 08:07:45;;;;;;;4.80;2.63;;;;;;;18.63;99.94;100788.09;5013786;28;20443;-73
2021/09/16 08:10:13;;;;;;;5.20;3.13;;;;;;;18.69;98.71;100791.44;5013803;28;20444;-73
2021/09/16 08:12:39;;;;;;;2.03;1.70;;;;;;;18.75;97.75;100795.53;5013777;28;20444;-73
2021/09/16 08:15:08;;;;;;;3.80;1.93;;;;;;;18.70;97.05;100794.97;5013490;28;20476;-72
2021/09/16 08:17:35;;;;;;;2.33;2.10;;;;;;;18.65;95.56;100796.00;5013594;28;20451;-74
2021/09/16 08:20:01;;;;;;;3.33;2.23;;;;;;;18.73;96.29;100800.56;5013559;28;20488;-74
2021/09/16 08:22:28;;;;;;;4.07;2.13;;;;;;;18.72;97.66;100800.91;5013538;28;20444;-74
2021/09/16 08:24:54;;;;;;;2.87;1.97;;;;;;;18.62;95.59;100799.44;5013555;28;20475;-74
2021/09/16 08:27:20;;;;;;;1.80;1.37;;;;;;;18.61;94.95;100795.09;5013585;28;20444;-74
2021/09/16 08:29:47;;;;;;;1.50;1.40;;;;;;;18.63;95.10;100781.81;5013697;28;20448;-74
2021/09/16 08:32:17;;;;;;;1.90;1.00;;;;;;;18.63;93.59;100790.06;5013541;28;20448;-75
2021/09/16 08:34:43;;;;;;;1.90;1.50;;;;;;;18.57;93.11;100797.75;5012876;28;20483;-74
2021/09/16 08:37:11;;;;;;;2.00;1.63;;;;;;;18.65;93.12;100796.00;5013528;28;20447;-75
2021/09/16 08:39:38;;;;;;;2.10;1.23;;;;;;;18.60;93.99;100809.97;5013087;28;21004;-74
2021/09/16 08:42:05;;;;;;;1.20;1.10;;;;;;;18.56;92.71;100798.09;5013485;28;20455;-75
2021/09/16 08:44:32;;;;;;;2.03;1.67;;;;;;;18.46;93.19;100810.38;5013609;28;20467;-73
2021/09/16 08:46:59;;;;;;;1.80;1.23;;;;;;;18.32;92.35;100818.19;5013042;28;20952;-75
2021/09/16 08:49:27;;;;;;;2.00;1.53;;;;;;;18.32;91.86;100816.22;5013563;28;20830;-75
2021/09/16 08:51:54;;;;;;;0.90;0.73;;;;;;;18.31;92.46;100809.16;5013310;28;20439;-74
2021/09/16 08:54:21;;;;;;;4.07;0.90;;;;;;;18.30;90.44;100812.25;5013241;28;20471;-74
2021/09/16 08:56:49;;;;;;;1.40;0.80;;;;;;;18.43;89.69;100816.56;5013475;28;20472;-73
2021/09/16 08:59:15;;;;;;;6.10;1.00;;;;;;;18.40;88.35;100823.53;5013269;28;20494;-75
2021/09/16 09:01:46;;;;;;;1.90;0.90;;;;;;;18.43;88.60;100813.81;5013291;28;20452;-74
2021/09/16 09:04:13;;;;;;;1.63;1.20;;;;;;;18.39;85.71;100816.44;5012902;28;21024;-75
2021/09/16 09:06:42;;;;;;;1.30;1.13;;;;;;;18.37;86.09;100816.00;5013193;28;20483;-75
2021/09/16 09:09:13;;;;;;;1.10;1.00;;;;;;;18.32;87.48;100821.72;5013175;28;20494;-73
2021/09/16 09:11:59;;;;;;;1.97;1.00;;;;;;;18.44;88.25;100817.34;5013013;28;20431;-74
2021/09/16 09:14:29;;;;;;;1.20;1.10;;;;;;;18.38;90.84;100816.81;5012961;28;20496;-71
2021/09/16 09:16:56;;;;;;;1.70;0.80;;;;;;;18.36;89.15;100821.81;5013219;28;20429;-74
2021/09/16 09:19:25;;;;;;;1.67;1.03;;;;;;;18.50;88.69;100827.72;5013080;28;20483;-74
2021/09/16 09:21:53;;;;;;;0.77;0.60;;;;;;;18.47;81.49;100825.69;5013104;28;20436;-74
2021/09/16 09:24:31;;;;;;;0.97;0.70;;;;;;;18.62;81.81;100829.63;5012543;28;20472;-74
2021/09/16 09:26:58;;;;;;;0.60;0.50;;;;;;;18.51;81.07;100826.59;5012822;28;20941;-74
2021/09/16 09:29:24;;;;;;;0.60;0.40;;;;;;;18.62;79.48;100830.41;5012784;28;20446;-75
2021/09/16 09:31:57;;;;;;;5.10;0.50;;;;;;;18.61;80.67;100836.25;5013073;28;20444;-75
2021/09/16 09:34:26;;;;;;;0.80;0.50;;;;;;;18.69;81.09;100838.09;5013256;28;20456;-74
2021/09/16 09:37:07;;;;;;;0.50;0.40;;;;;;;18.55;80.54;100832.16;5012683;28;20815;-73
2021/09/16 09:39:34;;;;;;;0.80;0.57;;;;;;;18.50;80.63;100833.19;5012849;28;20472;-73
2021/09/16 09:42:15;;;;;;;0.60;0.40;;;;;;;18.61;80.03;100833.53;5012924;28;20435;-74
2021/09/16 09:44:42;;;;;;;1.83;0.60;;;;;;;18.72;81.07;100833.84;5012943;28;20586;-74
2021/09/16 09:47:09;;;;;;;1.37;0.50;;;;;;;18.74;80.35;100826.88;5014934;28;20440;-73
2021/09/16 09:49:36;;;;;;;0.73;0.60;;;;;;;18.81;80.08;100826.25;5016421;28;20450;-75
2021/09/16 09:52:05;;;;;;;0.90;0.60;;;;;;;18.70;78.74;100823.22;5016310;28;20452;-73
2021/09/16 09:54:34;;;;;;;1.50;0.50;;;;;;;18.98;78.70;100820.44;5015992;28;20977;-74
2021/09/16 09:57:07;;;;;;;0.60;0.50;;;;;;;19.23;80.61;100821.09;5016296;28;20452;-74
2021/09/16 09:59:55;;;;;;;1.00;0.57;;;;;;;19.24;78.25;100827.38;5016431;28;20468;-73
2021/09/16 10:02:23;;;;;;;0.67;0.50;;;;;;;19.11;78.16;100821.16;5016168;28;20456;-73
2021/09/16 10:04:50;;;;;;;2.10;0.60;;;;;;;19.06;79.18;100824.97;5015974;28;20452;-74
2021/09/16 10:07:36;;;;;;;2.40;0.60;;;;;;;18.90;77.51;100829.63;5016002;28;20440;-73
2021/09/16 10:10:07;;;;;;;1.87;0.70;;;;;;;18.88;79.57;100821.75;5016420;28;20424;-74
2021/09/16 10:12:34;;;;;;;0.60;0.50;;;;;;;18.78;77.11;100830.50;5016025;28;20432;-74
2021/09/16 10:15:00;;;;;;;1.00;0.50;;;;;;;18.93;79.05;100825.41;5015461;28;20495;-74
2021/09/16 10:17:27;;;;;;;2.73;0.57;;;;;;;18.95;79.69;100823.91;5015750;28;20452;-74
2021/09/16 10:19:54;;;;;;;0.60;0.60;;;;;;;18.95;78.22;100825.81;5015486;28;21023;-74
2021/09/16 10:22:20;;;;;;;2.37;0.60;;;;;;;18.74;76.63;100828.81;5015791;28;20450;-74
2021/09/16 10:24:51;;;;;;;2.00;0.60;;;;;;;18.74;79.61;100826.88;5015705;28;20468;-73
2021/09/16 10:27:38;;;;;;;2.70;0.70;;;;;;;18.70;78.08;100831.47;5015458;28;20424;-75
2021/09/16 10:30:35;;;;;;;0.60;0.50;;;;;;;18.70;80.40;100831.47;5015546;28;20428;-74
2021/09/16 10:33:05;;;;;;;5.07;0.70;;;;;;;18.66;78.19;100830.53;5015488;28;20448;-73
2021/09/16 10:35:33;;;;;;;1.03;0.40;;;;;;;18.56;79.19;100831.03;5015474;28;20472;-74
2021/09/16 10:38:18;;;;;;;0.60;0.47;;;;;;;18.52;80.23;100832.88;5015175;28;20447;-74
2021/09/16 10:40:47;;;;;;;0.63;0.33;;;;;;;18.57;79.49;100838.09;5015087;28;20981;-74
2021/09/16 10:43:22;;;;;;;0.90;0.70;;;;;;;18.56;79.54;100836.53;5015312;28;20450;-74
2021/09/16 10:45:49;;;;;;;1.13;0.50;;;;;;;18.53;78.26;100826.22;5015343;28;20501;-74
2021/09/16 10:48:29;;;;;;;0.83;0.80;;;;;;;18.61;80.06;100836.25;5015275;28;20808;-73
2021/09/16 10:51:02;;;;;;;0.50;0.40;;;;;;;18.66;79.93;100834.06;5015499;28;20428;-73
2021/09/16 10:53:40;;;;;;;0.53;0.33;;;;;;;18.75;79.15;100839.44;5015209;28;20470;-74
2021/09/16 10:56:39;;;;;;;0.80;0.57;;;;;;;18.81;79.89;100835.28;5015008;28;20479;-75
2021/09/16 10:59:07;;;;;;;0.50;0.50;;;;;;;18.86;76.22;100828.75;5014432;28;20866;-74
2021/09/16 11:01:56;;;;;;;0.97;0.43;;;;;;;18.88;75.90;100840.19;5015267;28;20444;-75
2021/09/16 11:04:23;;;;;;;2.70;0.60;;;;;;;18.83;77.08;100845.91;5014560;28;20985;-72
2021/09/16 11:06:50;;;;;;;0.90;0.50;;;;;;;18.78;76.19;100852.47;5014888;28;20487;-75
2021/09/16 11:09:25;;;;;;;0.50;0.30;;;;;;;18.70;74.63;100836.16;5014972;28;20449;-73
2021/09/16 11:11:58;;;;;;;0.77;0.40;;;;;;;18.72;77.13;100847.56;5014448;28;20432;-74
2021/09/16 11:14:36;;;;;;;0.53;0.40;;;;;;;18.73;75.44;100847.22;5014750;28;20567;-74
2021/09/16 11:17:05;;;;;;;0.60;0.40;;;;;;;18.64;74.49;100841.06;5014600;28;20455;-74
2021/09/16 11:19:33;;;;;;;0.70;0.50;;;;;;;18.59;75.63;100842.13;5014548;28;20480;-74